createdAt,value
2018-03-23T00:00:35.465Z,100646.45
2018-03-23T00:05:36.396Z,100653.77
2018-03-23T00:10:38.360Z,100653.71
2018-03-23T00:15:39.277Z,100636.78
2018-03-23T00:20:40.225Z,100645.53
2018-03-23T00:25:41.149Z,100650.17
2018-03-23T00:30:42.054Z,100651.95
2018-03-23T00:35:43.000Z,100650.34
2018-03-23T00:40:44.005Z,100653.81
2018-03-23T00:45:44.948Z,100652.00
2018-03-23T00:50:45.893Z,100663.83
2018-03-23T00:55:46.828Z,100658.75
2018-03-23T01:00:47.901Z,100659.03
2018-03-23T01:05:48.951Z,100654.20
2018-03-23T01:10:49.944Z,100654.67
2018-03-23T01:15:50.873Z,100650.40
2018-03-23T01:20:51.784Z,100654.45
2018-03-23T01:25:52.715Z,100652.11
2018-03-23T01:30:53.650Z,100639.52
2018-03-23T01:35:54.604Z,100639.41
2018-03-23T01:40:55.796Z,100628.55
2018-03-23T01:45:56.709Z,100623.75
2018-03-23T01:50:57.654Z,100625.95
2018-03-23T01:55:58.584Z,100622.31
2018-03-23T02:00:59.525Z,100621.76
2018-03-23T02:06:00.485Z,100611.94
2018-03-23T02:11:01.433Z,100606.62
2018-03-23T02:16:02.388Z,100607.81
2018-03-23T02:21:03.315Z,100603.44
2018-03-23T02:26:04.274Z,100609.78
2018-03-23T02:31:05.229Z,100605.06
2018-03-23T02:36:06.193Z,100610.83
2018-03-23T02:41:07.129Z,100598.84
2018-03-23T02:46:08.063Z,100608.66
2018-03-23T02:51:09.047Z,100594.34
2018-03-23T02:56:09.976Z,100592.91
2018-03-23T03:01:10.904Z,100593.42
2018-03-23T03:06:11.833Z,100581.81
2018-03-23T03:11:12.795Z,100577.32
2018-03-23T03:16:13.717Z,100575.05
2018-03-23T03:21:14.651Z,100570.61
2018-03-23T03:26:15.568Z,100567.61
2018-03-23T03:31:16.484Z,100569.06
2018-03-23T03:36:17.443Z,100563.23
2018-03-23T03:41:18.376Z,100563.49
2018-03-23T03:46:19.312Z,100566.94
2018-03-23T03:51:20.241Z,100568.02
2018-03-23T03:56:21.193Z,100562.13
2018-03-23T04:01:22.130Z,100560.50
2018-03-23T04:06:23.050Z,100555.87
2018-03-23T04:11:23.968Z,100560.28
2018-03-23T04:16:24.885Z,100560.56
2018-03-23T04:21:25.801Z,100556.47
2018-03-23T04:26:26.747Z,100559.84
2018-03-23T04:31:27.704Z,100566.19
2018-03-23T04:36:28.700Z,100566.66
2018-03-23T04:41:29.613Z,100557.77
2018-03-23T04:46:30.556Z,100551.44
2018-03-23T04:51:31.512Z,100539.38
2018-03-23T04:56:32.447Z,100530.55
2018-03-23T05:01:33.393Z,100527.99
2018-03-23T05:06:34.322Z,100527.97
2018-03-23T05:11:35.256Z,100522.39
2018-03-23T05:16:36.200Z,100523.20
2018-03-23T05:21:37.174Z,100524.30
2018-03-23T05:26:38.109Z,100512.96
2018-03-23T05:31:39.061Z,100507.20
2018-03-23T05:36:40.018Z,100511.66
2018-03-23T05:41:40.976Z,100518.23
2018-03-23T05:46:41.912Z,100513.44
2018-03-23T05:51:42.863Z,100521.95
2018-03-23T05:56:44.571Z,100518.10
2018-03-23T06:01:45.528Z,100523.25
2018-03-23T06:06:46.460Z,100521.59
2018-03-23T06:11:47.405Z,100513.02
2018-03-23T06:16:48.376Z,100523.33
2018-03-23T06:21:49.318Z,100525.27
2018-03-23T06:26:50.265Z,100538.43
2018-03-23T06:31:51.218Z,100541.31
2018-03-23T06:36:52.207Z,100529.53
2018-03-23T06:41:53.150Z,100533.45
2018-03-23T06:46:54.104Z,100535.07
2018-03-23T06:51:55.032Z,100529.43
2018-03-23T06:56:55.973Z,100527.65
2018-03-23T07:01:56.900Z,100528.02
2018-03-23T07:06:57.834Z,100524.77
2018-03-23T07:11:58.772Z,100527.94
2018-03-23T07:16:59.713Z,100530.45
2018-03-23T07:22:00.672Z,100525.97
2018-03-23T07:27:01.655Z,100525.70
2018-03-23T07:32:02.595Z,100527.63
2018-03-23T07:37:03.632Z,100518.20
2018-03-23T07:42:04.579Z,100517.71
2018-03-23T07:47:05.531Z,100514.17
2018-03-23T07:52:06.481Z,100511.86
2018-03-23T07:57:07.432Z,100514.22
2018-03-23T08:02:08.371Z,100510.19
2018-03-23T08:07:09.306Z,100510.56
2018-03-23T08:12:10.238Z,100503.59
2018-03-23T08:17:11.183Z,100500.19
2018-03-23T08:22:12.136Z,100497.69
2018-03-23T08:27:13.045Z,100494.37
2018-03-23T08:32:13.966Z,100478.97
2018-03-23T08:37:14.942Z,100479.42
2018-03-23T08:42:15.888Z,100481.53
2018-03-23T08:47:16.815Z,100483.16
2018-03-23T08:52:17.763Z,100491.71
2018-03-23T08:57:18.701Z,100491.67
2018-03-23T09:02:19.641Z,100483.34
2018-03-23T09:07:20.596Z,100485.31
2018-03-23T09:12:21.560Z,100476.38
2018-03-23T09:17:22.505Z,100488.57
2018-03-23T09:22:23.461Z,100490.88
2018-03-23T09:27:24.391Z,100479.04
2018-03-23T09:32:25.295Z,100476.45
2018-03-23T09:37:26.272Z,100471.28
2018-03-23T09:42:27.213Z,100467.92
2018-03-23T09:47:28.143Z,100456.28
2018-03-23T09:52:29.115Z,100456.03
2018-03-23T09:57:30.088Z,100450.72
2018-03-23T10:02:31.010Z,100454.27
2018-03-23T10:07:31.942Z,100456.92
2018-03-23T10:12:32.899Z,100455.69
2018-03-23T10:17:33.838Z,100451.19
2018-03-23T10:22:34.791Z,100444.44
2018-03-23T10:27:35.740Z,100442.45
2018-03-23T10:32:36.685Z,100437.42
2018-03-23T10:37:37.673Z,100426.84
2018-03-23T10:42:38.645Z,100423.52
2018-03-23T10:47:39.587Z,100426.52
2018-03-23T10:52:40.546Z,100425.15
2018-03-23T10:57:41.509Z,100415.39
2018-03-23T11:02:48.617Z,100412.01
2018-03-23T11:07:49.551Z,100416.42
2018-03-23T11:12:50.470Z,100409.38
2018-03-23T11:17:51.407Z,100395.23
2018-03-23T11:22:52.334Z,100399.22
2018-03-23T11:27:53.282Z,100391.17
2018-03-23T11:32:54.214Z,100390.33
2018-03-23T11:37:55.182Z,100390.69
2018-03-23T11:42:56.144Z,100389.72
2018-03-23T11:47:57.088Z,100377.03
2018-03-23T11:52:58.261Z,100375.11
2018-03-23T11:57:59.237Z,100368.69
2018-03-23T12:03:06.980Z,100341.60
2018-03-23T12:08:07.916Z,100342.42
2018-03-23T12:13:08.853Z,100333.81
2018-03-23T12:18:09.800Z,100327.03
2018-03-23T12:23:10.738Z,100325.97
2018-03-23T12:28:11.696Z,100328.59
2018-03-23T12:33:13.518Z,100315.97
2018-03-23T12:38:14.484Z,100305.05
2018-03-23T12:43:15.416Z,100301.06
2018-03-23T12:48:16.378Z,100297.56
2018-03-23T12:53:17.329Z,100284.84
2018-03-23T12:58:18.268Z,100285.66
2018-03-23T13:03:19.186Z,100273.55
2018-03-23T13:08:20.123Z,100279.47
2018-03-23T13:13:21.098Z,100279.22
2018-03-23T13:18:22.046Z,100270.52
2018-03-23T13:23:23.011Z,100270.01
2018-03-23T13:28:23.965Z,100266.17
2018-03-23T13:33:24.927Z,100263.59
2018-03-23T13:38:25.918Z,100244.80
2018-03-23T13:43:26.852Z,100241.41
2018-03-23T13:48:27.818Z,100239.84
2018-03-23T13:53:28.836Z,100228.41
2018-03-23T13:58:36.032Z,100211.92
2018-03-23T14:03:36.983Z,100222.69
2018-03-23T14:08:37.925Z,100235.19
2018-03-23T14:13:38.883Z,100229.79
2018-03-23T14:18:39.810Z,100233.58
2018-03-23T14:23:40.753Z,100224.76
2018-03-23T14:28:41.694Z,100217.94
2018-03-23T14:33:42.652Z,100217.80
2018-03-23T14:38:43.634Z,100211.92
2018-03-23T14:43:44.575Z,100215.73
2018-03-23T14:48:45.523Z,100208.71
2018-03-23T14:53:46.507Z,100213.61
2018-03-23T14:58:53.615Z,100206.14
2018-03-23T15:03:54.567Z,100202.13
2018-03-23T15:08:55.534Z,100188.34
2018-03-23T15:14:08.849Z,100180.41
2018-03-23T15:19:09.832Z,100183.78
2018-03-23T15:24:10.790Z,100193.84
2018-03-23T15:29:11.738Z,100177.89
2018-03-23T15:34:12.708Z,100177.58
2018-03-23T15:39:13.662Z,100164.44
2018-03-23T15:44:14.641Z,100170.77
2018-03-23T15:49:15.607Z,100181.33
2018-03-23T15:54:16.573Z,100161.00
2018-03-23T15:59:17.544Z,100163.23
2018-03-23T16:04:18.515Z,100162.15
2018-03-23T16:09:19.507Z,100168.32
2018-03-23T16:14:20.506Z,100157.65
2018-03-23T16:19:21.452Z,100150.23
2018-03-23T16:24:22.424Z,100151.77
2018-03-23T16:29:23.402Z,100148.67
2018-03-23T16:34:24.369Z,100151.25
2018-03-23T16:39:25.326Z,100151.98
2018-03-23T16:44:26.253Z,100160.11
2018-03-23T16:49:27.209Z,100155.31
2018-03-23T16:54:28.229Z,100155.25
2018-03-23T16:59:29.175Z,100160.22
2018-03-23T17:04:30.168Z,100159.52
2018-03-23T17:09:31.142Z,100166.14
2018-03-23T17:14:32.085Z,100165.09
2018-03-23T17:19:33.031Z,100161.05
2018-03-23T17:24:34.413Z,100159.16
2018-03-23T17:29:35.392Z,100164.80
2018-03-23T17:34:36.363Z,100167.56
2018-03-23T17:39:37.376Z,100164.23
2018-03-23T17:44:38.341Z,100168.24
2018-03-23T17:49:39.346Z,100167.61
2018-03-23T17:54:40.327Z,100168.32
2018-03-23T17:59:41.322Z,100170.63
2018-03-23T18:04:42.270Z,100166.98
2018-03-23T18:09:43.253Z,100162.41
2018-03-23T18:14:44.285Z,100163.34
2018-03-23T18:19:45.260Z,100164.34
2018-03-23T18:24:46.230Z,100162.50
2018-03-23T18:29:47.251Z,100167.72
2018-03-23T18:34:48.266Z,100165.50
2018-03-23T18:39:49.299Z,100166.16
2018-03-23T18:44:50.254Z,100156.36
2018-03-23T18:49:51.233Z,100157.33
2018-03-23T18:54:52.242Z,100163.77
2018-03-23T18:59:53.180Z,100157.95
2018-03-23T19:04:54.131Z,100160.06
2018-03-23T19:09:55.081Z,100166.63
2018-03-23T19:14:56.055Z,100167.66
2018-03-23T19:19:57.001Z,100171.68
2018-03-23T19:24:57.979Z,100165.02
2018-03-23T19:29:58.944Z,100166.61
2018-03-23T19:34:59.925Z,100165.94
2018-03-23T19:40:00.961Z,100170.97
2018-03-23T19:45:01.923Z,100164.08
2018-03-23T19:50:02.911Z,100163.52
2018-03-23T19:55:03.906Z,100160.67
2018-03-23T20:00:04.925Z,100163.64
2018-03-23T20:05:05.916Z,100159.08
2018-03-23T20:10:06.872Z,100160.81
2018-03-23T20:15:07.821Z,100150.56
2018-03-23T20:20:14.775Z,100152.14
2018-03-23T20:25:15.759Z,100140.80
2018-03-23T20:30:16.736Z,100148.83
2018-03-23T20:35:17.756Z,100148.75
2018-03-23T20:40:19.263Z,100151.11
2018-03-23T20:45:20.979Z,100152.05
2018-03-23T20:50:21.994Z,100145.23
2018-03-23T20:55:22.992Z,100148.33
2018-03-23T21:00:23.962Z,100150.37
2018-03-23T21:05:24.941Z,100154.53
2018-03-23T21:10:25.942Z,100161.20
2018-03-23T21:15:26.960Z,100163.95
2018-03-23T21:20:28.575Z,100162.92
2018-03-23T21:30:37.215Z,100167.93
2018-03-23T21:35:38.195Z,100161.01
2018-03-23T21:40:39.255Z,100167.78
2018-03-23T21:45:40.345Z,100165.90
2018-03-23T21:50:41.503Z,100161.94
2018-03-23T21:55:42.615Z,100163.42
2018-03-23T22:00:43.604Z,100153.81
2018-03-23T22:05:44.543Z,100152.45
2018-03-23T22:10:45.511Z,100138.04
2018-03-23T22:15:46.493Z,100144.10
2018-03-23T22:20:47.494Z,100143.17
2018-03-23T22:25:48.467Z,100131.79
2018-03-23T22:30:49.629Z,100127.60
2018-03-23T22:35:50.634Z,100143.23
2018-03-23T22:40:51.643Z,100136.91
2018-03-23T22:45:52.603Z,100133.86
2018-03-23T22:50:53.601Z,100137.78
2018-03-23T22:55:54.649Z,100139.46
2018-03-23T23:00:55.620Z,100142.88
2018-03-23T23:05:56.552Z,100136.87
2018-03-23T23:10:57.530Z,100138.78
2018-03-23T23:15:58.490Z,100139.14
2018-03-23T23:20:59.444Z,100130.91
2018-03-23T23:26:00.411Z,100122.61
2018-03-23T23:31:01.378Z,100121.67
2018-03-23T23:36:02.326Z,100120.73
2018-03-23T23:41:03.296Z,100119.45
2018-03-23T23:46:04.236Z,100124.70
2018-03-23T23:51:05.210Z,100123.85
2018-03-23T23:56:06.186Z,100124.84
